sensor_id;sensor_type;location;lat;lon;timestamp;P1;durP1;ratioP1;P2;durP2;ratioP2
74059;SDS011;62414;53.436;8.828;2024-02-16T00:01:06;15.05;;;6.68;;
74059;SDS011;62414;53.436;8.828;2024-02-16T00:03:32;14.60;;;6.67;;
74059;SDS011;62414;53.436;8.828;2024-02-16T00:05:57;15.37;;;6.23;;
74059;SDS011;62414;53.436;8.828;2024-02-16T00:08:23;11.88;;;6.50;;
74059;SDS011;62414;53.436;8.828;2024-02-16T00:10:48;12.60;;;6.33;;
74059;SDS011;62414;53.436;8.828;2024-02-16T00:13:15;14.50;;;6.60;;
74059;SDS011;62414;53.436;8.828;2024-02-16T00:15:41;15.07;;;6.20;;
74059;SDS011;62414;53.436;8.828;2024-02-16T00:18:06;13.38;;;6.22;;
74059;SDS011;62414;53.436;8.828;2024-02-16T00:20:32;12.23;;;6.20;;
74059;SDS011;62414;53.436;8.828;2024-02-16T00:22:58;12.55;;;5.93;;
74059;SDS011;62414;53.436;8.828;2024-02-16T00:25:23;12.50;;;6.00;;
74059;SDS011;62414;53.436;8.828;2024-02-16T00:27:49;12.45;;;5.90;;
74059;SDS011;62414;53.436;8.828;2024-02-16T00:30:16;14.13;;;5.83;;
74059;SDS011;62414;53.436;8.828;2024-02-16T00:32:41;13.85;;;6.03;;
74059;SDS011;62414;53.436;8.828;2024-02-16T00:35:07;12.87;;;5.90;;
74059;SDS011;62414;53.436;8.828;2024-02-16T00:37:33;13.07;;;5.88;;
74059;SDS011;62414;53.436;8.828;2024-02-16T00:39:58;12.27;;;5.67;;
74059;SDS011;62414;53.436;8.828;2024-02-16T00:42:24;14.63;;;5.60;;
74059;SDS011;62414;53.436;8.828;2024-02-16T00:44:49;12.52;;;5.40;;
74059;SDS011;62414;53.436;8.828;2024-02-16T00:47:16;12.20;;;5.47;;
74059;SDS011;62414;53.436;8.828;2024-02-16T00:49:42;13.55;;;5.85;;
74059;SDS011;62414;53.436;8.828;2024-02-16T00:52:07;13.33;;;5.17;;
74059;SDS011;62414;53.436;8.828;2024-02-16T00:54:33;12.52;;;5.15;;
74059;SDS011;62414;53.436;8.828;2024-02-16T00:56:58;13.83;;;5.73;;
74059;SDS011;62414;53.436;8.828;2024-02-16T00:59:24;14.73;;;5.40;;
74059;SDS011;62414;53.436;8.828;2024-02-16T01:01:49;10.90;;;5.18;;
74059;SDS011;62414;53.436;8.828;2024-02-16T01:04:16;10.83;;;4.93;;
74059;SDS011;62414;53.436;8.828;2024-02-16T01:06:42;11.00;;;5.13;;
74059;SDS011;62414;53.436;8.828;2024-02-16T01:09:07;13.90;;;5.30;;
74059;SDS011;62414;53.436;8.828;2024-02-16T01:11:33;11.10;;;5.25;;
74059;SDS011;62414;53.436;8.828;2024-02-16T01:13:58;11.90;;;4.90;;
74059;SDS011;62414;53.436;8.828;2024-02-16T01:16:24;10.20;;;5.00;;
74059;SDS011;62414;53.436;8.828;2024-02-16T01:18:49;11.43;;;4.77;;
74059;SDS011;62414;53.436;8.828;2024-02-16T01:21:16;13.18;;;4.90;;
74059;SDS011;62414;53.436;8.828;2024-02-16T01:23:41;11.43;;;4.50;;
74059;SDS011;62414;53.436;8.828;2024-02-16T01:26:07;11.00;;;4.60;;
74059;SDS011;62414;53.436;8.828;2024-02-16T01:28:32;11.20;;;4.80;;
74059;SDS011;62414;53.436;8.828;2024-02-16T01:30:58;12.07;;;5.53;;
74059;SDS011;62414;53.436;8.828;2024-02-16T01:33:23;11.50;;;4.33;;
74059;SDS011;62414;53.436;8.828;2024-02-16T01:35:49;10.17;;;4.33;;
74059;SDS011;62414;53.436;8.828;2024-02-16T01:38:16;10.75;;;4.75;;
74059;SDS011;62414;53.436;8.828;2024-02-16T01:40:41;9.93;;;4.40;;
74059;SDS011;62414;53.436;8.828;2024-02-16T01:43:07;9.55;;;4.15;;
74059;SDS011;62414;53.436;8.828;2024-02-16T01:45:32;9.23;;;4.13;;
74059;SDS011;62414;53.436;8.828;2024-02-16T01:47:58;10.70;;;4.23;;
74059;SDS011;62414;53.436;8.828;2024-02-16T01:50:23;10.95;;;4.25;;
74059;SDS011;62414;53.436;8.828;2024-02-16T01:52:49;9.67;;;3.77;;
74059;SDS011;62414;53.436;8.828;2024-02-16T01:55:16;8.68;;;4.20;;
74059;SDS011;62414;53.436;8.828;2024-02-16T01:57:42;9.52;;;4.25;;
74059;SDS011;62414;53.436;8.828;2024-02-16T02:00:09;11.85;;;4.65;;
74059;SDS011;62414;53.436;8.828;2024-02-16T02:02:35;10.50;;;3.90;;
74059;SDS011;62414;53.436;8.828;2024-02-16T02:05:01;11.27;;;3.92;;
74059;SDS011;62414;53.436;8.828;2024-02-16T02:07:27;8.70;;;3.70;;
74059;SDS011;62414;53.436;8.828;2024-02-16T02:09:52;7.50;;;3.53;;
74059;SDS011;62414;53.436;8.828;2024-02-16T02:12:19;9.57;;;3.67;;
74059;SDS011;62414;53.436;8.828;2024-02-16T02:14:45;10.40;;;3.90;;
74059;SDS011;62414;53.436;8.828;2024-02-16T02:17:11;10.20;;;3.80;;
74059;SDS011;62414;53.436;8.828;2024-02-16T02:19:37;8.77;;;3.43;;
74059;SDS011;62414;53.436;8.828;2024-02-16T02:22:02;8.88;;;3.33;;
74059;SDS011;62414;53.436;8.828;2024-02-16T02:24:29;8.47;;;3.53;;
74059;SDS011;62414;53.436;8.828;2024-02-16T02:26:55;9.95;;;3.40;;
74059;SDS011;62414;53.436;8.828;2024-02-16T02:29:20;10.63;;;3.33;;
74059;SDS011;62414;53.436;8.828;2024-02-16T02:31:46;10.70;;;3.42;;
74059;SDS011;62414;53.436;8.828;2024-02-16T02:34:11;8.17;;;3.27;;
74059;SDS011;62414;53.436;8.828;2024-02-16T02:36:37;10.60;;;3.37;;
74059;SDS011;62414;53.436;8.828;2024-02-16T02:39:02;6.30;;;3.13;;
74059;SDS011;62414;53.436;8.828;2024-02-16T02:41:29;9.60;;;3.30;;
74059;SDS011;62414;53.436;8.828;2024-02-16T02:43:55;9.75;;;3.00;;
74059;SDS011;62414;53.436;8.828;2024-02-16T02:46:22;11.27;;;3.53;;
74059;SDS011;62414;53.436;8.828;2024-02-16T02:48:48;7.75;;;2.97;;
74059;SDS011;62414;53.436;8.828;2024-02-16T02:51:13;7.17;;;2.97;;
74059;SDS011;62414;53.436;8.828;2024-02-16T02:53:38;9.60;;;3.23;;
74059;SDS011;62414;53.436;8.828;2024-02-16T02:56:04;8.95;;;3.47;;
74059;SDS011;62414;53.436;8.828;2024-02-16T02:58:32;8.07;;;3.30;;
74059;SDS011;62414;53.436;8.828;2024-02-16T03:00:57;7.40;;;2.93;;
74059;SDS011;62414;53.436;8.828;2024-02-16T03:03:23;10.15;;;3.10;;
74059;SDS011;62414;53.436;8.828;2024-02-16T03:05:49;12.10;;;3.33;;
74059;SDS011;62414;53.436;8.828;2024-02-16T03:08:15;9.20;;;3.72;;
74059;SDS011;62414;53.436;8.828;2024-02-16T03:10:40;9.50;;;3.37;;
74059;SDS011;62414;53.436;8.828;2024-02-16T03:13:06;9.23;;;3.60;;
74059;SDS011;62414;53.436;8.828;2024-02-16T03:15:33;9.80;;;3.40;;
74059;SDS011;62414;53.436;8.828;2024-02-16T03:17:58;12.00;;;3.80;;
74059;SDS011;62414;53.436;8.828;2024-02-16T03:20:24;10.30;;;3.80;;
74059;SDS011;62414;53.436;8.828;2024-02-16T03:22:49;7.50;;;3.97;;
74059;SDS011;62414;53.436;8.828;2024-02-16T03:25:15;8.40;;;3.50;;
74059;SDS011;62414;53.436;8.828;2024-02-16T03:27:41;8.33;;;3.63;;
74059;SDS011;62414;53.436;8.828;2024-02-16T03:30:08;10.75;;;3.90;;
74059;SDS011;62414;53.436;8.828;2024-02-16T03:32:35;11.00;;;4.25;;
74059;SDS011;62414;53.436;8.828;2024-02-16T03:35:00;9.77;;;3.67;;
74059;SDS011;62414;53.436;8.828;2024-02-16T03:37:26;10.43;;;3.63;;
74059;SDS011;62414;53.436;8.828;2024-02-16T03:39:51;10.03;;;3.70;;
74059;SDS011;62414;53.436;8.828;2024-02-16T03:42:17;8.43;;;3.60;;
74059;SDS011;62414;53.436;8.828;2024-02-16T03:44:43;10.07;;;3.87;;
74059;SDS011;62414;53.436;8.828;2024-02-16T03:47:09;10.43;;;3.63;;
74059;SDS011;62414;53.436;8.828;2024-02-16T03:49:36;9.63;;;3.43;;
74059;SDS011;62414;53.436;8.828;2024-02-16T03:52:01;9.60;;;3.40;;
74059;SDS011;62414;53.436;8.828;2024-02-16T03:54:27;7.87;;;3.23;;
74059;SDS011;62414;53.436;8.828;2024-02-16T03:56:53;8.55;;;3.53;;
74059;SDS011;62414;53.436;8.828;2024-02-16T03:59:18;13.82;;;3.60;;
74059;SDS011;62414;53.436;8.828;2024-02-16T04:01:44;7.93;;;3.40;;
74059;SDS011;62414;53.436;8.828;2024-02-16T04:04:09;9.60;;;3.53;;
74059;SDS011;62414;53.436;8.828;2024-02-16T04:06:36;7.50;;;3.20;;
74059;SDS011;62414;53.436;8.828;2024-02-16T04:09:02;10.47;;;3.50;;
74059;SDS011;62414;53.436;8.828;2024-02-16T04:11:27;8.75;;;3.50;;
74059;SDS011;62414;53.436;8.828;2024-02-16T04:13:53;9.53;;;3.80;;
74059;SDS011;62414;53.436;8.828;2024-02-16T04:16:18;8.37;;;3.30;;
74059;SDS011;62414;53.436;8.828;2024-02-16T04:18:44;9.20;;;3.35;;
74059;SDS011;62414;53.436;8.828;2024-02-16T04:21:09;11.30;;;3.30;;
74059;SDS011;62414;53.436;8.828;2024-02-16T04:23:36;10.27;;;3.00;;
74059;SDS011;62414;53.436;8.828;2024-02-16T04:26:02;6.07;;;3.00;;
74059;SDS011;62414;53.436;8.828;2024-02-16T04:28:27;10.00;;;3.28;;
74059;SDS011;62414;53.436;8.828;2024-02-16T04:30:53;6.83;;;3.10;;
74059;SDS011;62414;53.436;8.828;2024-02-16T04:33:18;9.43;;;3.33;;
74059;SDS011;62414;53.436;8.828;2024-02-16T04:35:44;9.40;;;3.17;;
74059;SDS011;62414;53.436;8.828;2024-02-16T04:38:09;8.10;;;3.47;;
74059;SDS011;62414;53.436;8.828;2024-02-16T04:40:36;9.20;;;3.10;;
74059;SDS011;62414;53.436;8.828;2024-02-16T04:43:02;8.20;;;2.87;;
74059;SDS011;62414;53.436;8.828;2024-02-16T04:45:28;6.40;;;3.05;;
74059;SDS011;62414;53.436;8.828;2024-02-16T04:47:53;8.80;;;2.90;;
74059;SDS011;62414;53.436;8.828;2024-02-16T04:50:19;7.45;;;2.90;;
74059;SDS011;62414;53.436;8.828;2024-02-16T04:52:44;9.33;;;2.90;;
74059;SDS011;62414;53.436;8.828;2024-02-16T04:55:10;6.47;;;2.70;;
74059;SDS011;62414;53.436;8.828;2024-02-16T04:57:37;6.55;;;2.90;;
74059;SDS011;62414;53.436;8.828;2024-02-16T05:00:02;10.63;;;3.10;;
74059;SDS011;62414;53.436;8.828;2024-02-16T05:02:28;8.60;;;3.50;;
74059;SDS011;62414;53.436;8.828;2024-02-16T05:04:54;8.67;;;2.77;;
74059;SDS011;62414;53.436;8.828;2024-02-16T05:07:19;7.40;;;2.90;;
74059;SDS011;62414;53.436;8.828;2024-02-16T05:09:45;6.43;;;2.70;;
74059;SDS011;62414;53.436;8.828;2024-02-16T05:12:10;10.33;;;3.23;;
74059;SDS011;62414;53.436;8.828;2024-02-16T05:14:37;6.90;;;3.00;;
74059;SDS011;62414;53.436;8.828;2024-02-16T05:17:03;6.87;;;2.70;;
74059;SDS011;62414;53.436;8.828;2024-02-16T05:19:31;9.35;;;3.00;;
74059;SDS011;62414;53.436;8.828;2024-02-16T05:21:57;7.90;;;3.00;;
74059;SDS011;62414;53.436;8.828;2024-02-16T05:24:23;6.60;;;2.83;;
74059;SDS011;62414;53.436;8.828;2024-02-16T05:26:48;9.17;;;2.90;;
74059;SDS011;62414;53.436;8.828;2024-02-16T05:29:14;9.35;;;2.90;;
74059;SDS011;62414;53.436;8.828;2024-02-16T05:31:40;7.60;;;2.77;;
74059;SDS011;62414;53.436;8.828;2024-02-16T05:34:06;5.70;;;2.70;;
74059;SDS011;62414;53.436;8.828;2024-02-16T05:36:31;9.43;;;3.10;;
74059;SDS011;62414;53.436;8.828;2024-02-16T05:38:57;7.22;;;3.10;;
74059;SDS011;62414;53.436;8.828;2024-02-16T05:41:22;8.80;;;3.13;;
74059;SDS011;62414;53.436;8.828;2024-02-16T05:43:48;11.83;;;3.00;;
74059;SDS011;62414;53.436;8.828;2024-02-16T05:46:14;6.85;;;3.00;;
74059;SDS011;62414;53.436;8.828;2024-02-16T05:48:41;6.80;;;3.07;;
74059;SDS011;62414;53.436;8.828;2024-02-16T05:51:06;7.22;;;2.65;;
74059;SDS011;62414;53.436;8.828;2024-02-16T05:53:32;11.05;;;3.10;;
74059;SDS011;62414;53.436;8.828;2024-02-16T05:55:58;9.90;;;3.20;;
74059;SDS011;62414;53.436;8.828;2024-02-16T05:58:24;7.90;;;2.65;;
74059;SDS011;62414;53.436;8.828;2024-02-16T06:00:50;8.73;;;2.80;;
74059;SDS011;62414;53.436;8.828;2024-02-16T06:03:15;8.33;;;2.70;;
74059;SDS011;62414;53.436;8.828;2024-02-16T06:05:42;9.27;;;2.80;;
74059;SDS011;62414;53.436;8.828;2024-02-16T06:08:08;6.47;;;2.90;;
74059;SDS011;62414;53.436;8.828;2024-02-16T06:10:35;8.40;;;2.50;;
74059;SDS011;62414;53.436;8.828;2024-02-16T06:13:00;6.10;;;2.77;;
74059;SDS011;62414;53.436;8.828;2024-02-16T06:15:26;5.35;;;2.63;;
74059;SDS011;62414;53.436;8.828;2024-02-16T06:17:51;9.40;;;2.80;;
74059;SDS011;62414;53.436;8.828;2024-02-16T06:20:17;8.05;;;2.63;;
74059;SDS011;62414;53.436;8.828;2024-02-16T06:22:44;9.00;;;2.67;;
74059;SDS011;62414;53.436;8.828;2024-02-16T06:25:10;8.07;;;2.80;;
74059;SDS011;62414;53.436;8.828;2024-02-16T06:27:35;9.20;;;2.83;;
74059;SDS011;62414;53.436;8.828;2024-02-16T06:30:01;9.23;;;2.70;;
74059;SDS011;62414;53.436;8.828;2024-02-16T06:32:27;10.20;;;3.05;;
74059;SDS011;62414;53.436;8.828;2024-02-16T06:34:52;7.20;;;2.70;;
74059;SDS011;62414;53.436;8.828;2024-02-16T06:37:18;8.03;;;2.60;;
74059;SDS011;62414;53.436;8.828;2024-02-16T06:39:45;6.93;;;2.20;;
74059;SDS011;62414;53.436;8.828;2024-02-16T06:42:10;8.25;;;2.65;;
74059;SDS011;62414;53.436;8.828;2024-02-16T06:44:36;6.73;;;2.50;;
74059;SDS011;62414;53.436;8.828;2024-02-16T06:47:01;8.00;;;2.60;;
74059;SDS011;62414;53.436;8.828;2024-02-16T06:49:27;8.57;;;2.80;;
74059;SDS011;62414;53.436;8.828;2024-02-16T06:51:52;8.37;;;2.60;;
74059;SDS011;62414;53.436;8.828;2024-02-16T06:54:18;8.23;;;2.50;;
74059;SDS011;62414;53.436;8.828;2024-02-16T06:56:45;6.82;;;2.50;;
74059;SDS011;62414;53.436;8.828;2024-02-16T06:59:10;6.10;;;2.50;;
74059;SDS011;62414;53.436;8.828;2024-02-16T07:01:36;7.00;;;2.53;;
74059;SDS011;62414;53.436;8.828;2024-02-16T07:04:01;6.93;;;2.60;;
74059;SDS011;62414;53.436;8.828;2024-02-16T07:06:27;6.38;;;2.28;;
74059;SDS011;62414;53.436;8.828;2024-02-16T07:08:52;8.00;;;2.73;;
74059;SDS011;62414;53.436;8.828;2024-02-16T07:11:18;6.07;;;2.47;;
74059;SDS011;62414;53.436;8.828;2024-02-16T07:13:45;7.35;;;2.80;;
74059;SDS011;62414;53.436;8.828;2024-02-16T07:16:10;9.93;;;3.28;;
74059;SDS011;62414;53.436;8.828;2024-02-16T07:18:36;9.13;;;3.63;;
74059;SDS011;62414;53.436;8.828;2024-02-16T07:21:01;12.67;;;5.07;;
74059;SDS011;62414;53.436;8.828;2024-02-16T07:23:27;7.10;;;2.85;;
74059;SDS011;62414;53.436;8.828;2024-02-16T07:25:53;7.93;;;3.10;;
74059;SDS011;62414;53.436;8.828;2024-02-16T07:28:18;9.02;;;2.90;;
74059;SDS011;62414;53.436;8.828;2024-02-16T07:30:45;6.00;;;2.90;;
74059;SDS011;62414;53.436;8.828;2024-02-16T07:33:11;6.85;;;3.00;;
74059;SDS011;62414;53.436;8.828;2024-02-16T07:35:36;6.27;;;2.50;;
74059;SDS011;62414;53.436;8.828;2024-02-16T07:38:02;9.20;;;2.90;;
74059;SDS011;62414;53.436;8.828;2024-02-16T07:40:28;5.87;;;2.90;;
74059;SDS011;62414;53.436;8.828;2024-02-16T07:42:53;6.38;;;2.53;;
74059;SDS011;62414;53.436;8.828;2024-02-16T07:45:19;8.57;;;3.53;;
74059;SDS011;62414;53.436;8.828;2024-02-16T07:47:46;5.35;;;2.30;;
74059;SDS011;62414;53.436;8.828;2024-02-16T07:50:11;5.37;;;2.20;;
74059;SDS011;62414;53.436;8.828;2024-02-16T07:52:39;5.53;;;2.10;;
74059;SDS011;62414;53.436;8.828;2024-02-16T07:55:05;6.50;;;2.38;;
74059;SDS011;62414;53.436;8.828;2024-02-16T07:57:31;7.20;;;2.40;;
74059;SDS011;62414;53.436;8.828;2024-02-16T07:59:57;6.13;;;2.00;;
74059;SDS011;62414;53.436;8.828;2024-02-16T08:02:22;5.77;;;2.10;;
74059;SDS011;62414;53.436;8.828;2024-02-16T08:04:49;5.10;;;2.22;;
74059;SDS011;62414;53.436;8.828;2024-02-16T08:07:15;6.38;;;2.22;;
74059;SDS011;62414;53.436;8.828;2024-02-16T08:09:43;4.77;;;2.00;;
74059;SDS011;62414;53.436;8.828;2024-02-16T08:12:08;4.97;;;1.70;;
74059;SDS011;62414;53.436;8.828;2024-02-16T08:14:34;7.97;;;2.27;;
74059;SDS011;62414;53.436;8.828;2024-02-16T08:16:59;4.70;;;2.23;;
74059;SDS011;62414;53.436;8.828;2024-02-16T08:19:26;7.20;;;2.25;;
74059;SDS011;62414;53.436;8.828;2024-02-16T08:21:58;6.88;;;2.60;;
74059;SDS011;62414;53.436;8.828;2024-02-16T08:24:23;6.00;;;2.10;;
74059;SDS011;62414;53.436;8.828;2024-02-16T08:26:49;4.65;;;1.95;;
74059;SDS011;62414;53.436;8.828;2024-02-16T08:29:14;5.63;;;2.10;;
74059;SDS011;62414;53.436;8.828;2024-02-16T08:31:40;5.27;;;2.13;;
74059;SDS011;62414;53.436;8.828;2024-02-16T08:34:05;5.95;;;1.83;;
74059;SDS011;62414;53.436;8.828;2024-02-16T08:36:31;6.10;;;1.90;;
74059;SDS011;62414;53.436;8.828;2024-02-16T08:38:58;4.93;;;1.80;;
74059;SDS011;62414;53.436;8.828;2024-02-16T08:41:23;5.15;;;1.88;;
74059;SDS011;62414;53.436;8.828;2024-02-16T08:43:49;5.63;;;1.97;;
74059;SDS011;62414;53.436;8.828;2024-02-16T08:46:14;4.93;;;1.88;;
74059;SDS011;62414;53.436;8.828;2024-02-16T08:48:40;6.53;;;1.90;;
74059;SDS011;62414;53.436;8.828;2024-02-16T08:51:05;7.40;;;2.10;;
74059;SDS011;62414;53.436;8.828;2024-02-16T08:53:31;6.10;;;2.20;;
74059;SDS011;62414;53.436;8.828;2024-02-16T08:55:58;7.43;;;2.20;;
74059;SDS011;62414;53.436;8.828;2024-02-16T08:58:23;6.20;;;2.00;;
74059;SDS011;62414;53.436;8.828;2024-02-16T09:00:49;5.27;;;2.07;;
74059;SDS011;62414;53.436;8.828;2024-02-16T09:03:14;5.15;;;2.13;;
74059;SDS011;62414;53.436;8.828;2024-02-16T09:05:40;6.10;;;2.10;;
74059;SDS011;62414;53.436;8.828;2024-02-16T09:08:05;7.57;;;2.50;;
74059;SDS011;62414;53.436;8.828;2024-02-16T09:10:31;6.10;;;2.28;;
74059;SDS011;62414;53.436;8.828;2024-02-16T09:12:58;7.07;;;2.43;;
74059;SDS011;62414;53.436;8.828;2024-02-16T09:15:23;6.00;;;2.60;;
74059;SDS011;62414;53.436;8.828;2024-02-16T09:17:49;7.33;;;2.50;;
74059;SDS011;62414;53.436;8.828;2024-02-16T09:20:14;4.50;;;2.30;;
74059;SDS011;62414;53.436;8.828;2024-02-16T09:22:40;7.40;;;2.23;;
74059;SDS011;62414;53.436;8.828;2024-02-16T09:25:06;6.60;;;2.45;;
74059;SDS011;62414;53.436;8.828;2024-02-16T09:27:32;6.60;;;2.70;;
74059;SDS011;62414;53.436;8.828;2024-02-16T09:29:59;4.77;;;2.30;;
74059;SDS011;62414;53.436;8.828;2024-02-16T09:32:24;6.93;;;2.47;;
74059;SDS011;62414;53.436;8.828;2024-02-16T09:34:50;6.63;;;2.50;;
74059;SDS011;62414;53.436;8.828;2024-02-16T09:37:15;6.53;;;2.70;;
74059;SDS011;62414;53.436;8.828;2024-02-16T09:39:41;6.87;;;2.63;;
74059;SDS011;62414;53.436;8.828;2024-02-16T09:42:06;6.70;;;2.40;;
74059;SDS011;62414;53.436;8.828;2024-02-16T09:44:32;6.53;;;2.55;;
74059;SDS011;62414;53.436;8.828;2024-02-16T09:47:02;6.37;;;2.50;;
74059;SDS011;62414;53.436;8.828;2024-02-16T09:49:27;6.85;;;2.15;;
74059;SDS011;62414;53.436;8.828;2024-02-16T09:51:53;6.25;;;2.55;;
74059;SDS011;62414;53.436;8.828;2024-02-16T09:54:20;6.80;;;2.70;;
74059;SDS011;62414;53.436;8.828;2024-02-16T09:56:45;6.78;;;2.60;;
74059;SDS011;62414;53.436;8.828;2024-02-16T09:59:11;6.23;;;2.60;;
74059;SDS011;62414;53.436;8.828;2024-02-16T10:01:36;8.27;;;2.60;;
74059;SDS011;62414;53.436;8.828;2024-02-16T10:04:06;7.10;;;2.38;;
74059;SDS011;62414;53.436;8.828;2024-02-16T10:06:32;6.15;;;2.50;;
74059;SDS011;62414;53.436;8.828;2024-02-16T10:08:58;6.03;;;2.63;;
74059;SDS011;62414;53.436;8.828;2024-02-16T10:11:25;7.47;;;2.80;;
74059;SDS011;62414;53.436;8.828;2024-02-16T10:13:54;6.05;;;2.50;;
74059;SDS011;62414;53.436;8.828;2024-02-16T10:16:20;5.95;;;2.45;;
74059;SDS011;62414;53.436;8.828;2024-02-16T10:18:46;5.60;;;2.60;;
74059;SDS011;62414;53.436;8.828;2024-02-16T10:21:13;9.27;;;2.50;;
74059;SDS011;62414;53.436;8.828;2024-02-16T10:23:38;8.32;;;2.38;;
74059;SDS011;62414;53.436;8.828;2024-02-16T10:26:04;5.57;;;2.30;;
74059;SDS011;62414;53.436;8.828;2024-02-16T10:28:29;5.33;;;2.00;;
74059;SDS011;62414;53.436;8.828;2024-02-16T10:30:57;4.40;;;2.10;;
74059;SDS011;62414;53.436;8.828;2024-02-16T10:33:23;6.55;;;2.20;;
74059;SDS011;62414;53.436;8.828;2024-02-16T10:35:49;9.35;;;2.38;;
74059;SDS011;62414;53.436;8.828;2024-02-16T10:38:17;5.60;;;2.10;;
74059;SDS011;62414;53.436;8.828;2024-02-16T10:40:43;7.80;;;2.55;;
74059;SDS011;62414;53.436;8.828;2024-02-16T10:43:12;5.93;;;2.20;;
74059;SDS011;62414;53.436;8.828;2024-02-16T10:45:38;6.43;;;2.25;;
74059;SDS011;62414;53.436;8.828;2024-02-16T10:48:05;6.82;;;2.50;;
74059;SDS011;62414;53.436;8.828;2024-02-16T10:50:31;5.18;;;2.60;;
74059;SDS011;62414;53.436;8.828;2024-02-16T10:52:58;7.30;;;2.20;;
74059;SDS011;62414;53.436;8.828;2024-02-16T10:55:26;6.63;;;2.45;;
74059;SDS011;62414;53.436;8.828;2024-02-16T10:57:52;4.97;;;2.40;;
74059;SDS011;62414;53.436;8.828;2024-02-16T11:00:19;7.83;;;2.80;;
74059;SDS011;62414;53.436;8.828;2024-02-16T11:02:51;6.63;;;2.85;;
74059;SDS011;62414;53.436;8.828;2024-02-16T11:05:20;6.30;;;2.67;;
74059;SDS011;62414;53.436;8.828;2024-02-16T11:07:45;6.10;;;2.60;;
74059;SDS011;62414;53.436;8.828;2024-02-16T11:10:11;8.13;;;2.78;;
74059;SDS011;62414;53.436;8.828;2024-02-16T11:12:38;6.20;;;2.92;;
74059;SDS011;62414;53.436;8.828;2024-02-16T11:15:08;11.13;;;4.27;;
74059;SDS011;62414;53.436;8.828;2024-02-16T11:17:33;6.60;;;2.95;;
74059;SDS011;62414;53.436;8.828;2024-02-16T11:20:00;7.25;;;2.97;;
74059;SDS011;62414;53.436;8.828;2024-02-16T11:22:26;6.87;;;3.03;;
74059;SDS011;62414;53.436;8.828;2024-02-16T11:24:53;7.80;;;2.90;;
74059;SDS011;62414;53.436;8.828;2024-02-16T11:27:18;9.32;;;3.13;;
74059;SDS011;62414;53.436;8.828;2024-02-16T11:29:46;8.63;;;3.20;;
74059;SDS011;62414;53.436;8.828;2024-02-16T11:32:11;8.75;;;3.20;;
74059;SDS011;62414;53.436;8.828;2024-02-16T11:34:37;8.38;;;3.45;;
74059;SDS011;62414;53.436;8.828;2024-02-16T11:37:03;11.00;;;3.10;;
74059;SDS011;62414;53.436;8.828;2024-02-16T11:39:29;7.50;;;3.40;;
74059;SDS011;62414;53.436;8.828;2024-02-16T11:42:01;8.20;;;3.30;;
74059;SDS011;62414;53.436;8.828;2024-02-16T11:44:27;7.82;;;3.60;;
74059;SDS011;62414;53.436;8.828;2024-02-16T11:46:54;6.43;;;3.30;;
74059;SDS011;62414;53.436;8.828;2024-02-16T11:49:20;10.18;;;3.47;;
74059;SDS011;62414;53.436;8.828;2024-02-16T11:51:45;7.13;;;3.50;;
74059;SDS011;62414;53.436;8.828;2024-02-16T11:54:11;7.97;;;3.70;;
74059;SDS011;62414;53.436;8.828;2024-02-16T11:56:36;7.22;;;3.35;;
74059;SDS011;62414;53.436;8.828;2024-02-16T11:59:02;8.27;;;3.67;;
74059;SDS011;62414;53.436;8.828;2024-02-16T12:01:27;8.98;;;3.88;;
74059;SDS011;62414;53.436;8.828;2024-02-16T12:03:54;11.43;;;4.20;;
74059;SDS011;62414;53.436;8.828;2024-02-16T12:06:20;8.20;;;3.67;;
74059;SDS011;62414;53.436;8.828;2024-02-16T12:08:46;9.33;;;3.77;;
74059;SDS011;62414;53.436;8.828;2024-02-16T12:11:11;8.65;;;3.80;;
74059;SDS011;62414;53.436;8.828;2024-02-16T12:13:37;8.13;;;3.67;;
74059;SDS011;62414;53.436;8.828;2024-02-16T12:16:02;8.40;;;4.03;;
74059;SDS011;62414;53.436;8.828;2024-02-16T12:18:28;9.70;;;3.65;;
74059;SDS011;62414;53.436;8.828;2024-02-16T12:20:59;8.65;;;3.80;;
74059;SDS011;62414;53.436;8.828;2024-02-16T12:23:25;9.20;;;3.70;;
74059;SDS011;62414;53.436;8.828;2024-02-16T12:25:51;8.40;;;4.10;;
74059;SDS011;62414;53.436;8.828;2024-02-16T12:28:17;8.75;;;4.00;;
74059;SDS011;62414;53.436;8.828;2024-02-16T12:30:42;8.07;;;3.80;;
74059;SDS011;62414;53.436;8.828;2024-02-16T12:33:08;8.13;;;3.97;;
74059;SDS011;62414;53.436;8.828;2024-02-16T12:35:33;9.35;;;4.05;;
74059;SDS011;62414;53.436;8.828;2024-02-16T12:38:00;8.40;;;4.50;;
74059;SDS011;62414;53.436;8.828;2024-02-16T12:40:26;9.10;;;4.13;;
74059;SDS011;62414;53.436;8.828;2024-02-16T12:42:51;11.10;;;4.50;;
74059;SDS011;62414;53.436;8.828;2024-02-16T12:45:17;10.93;;;4.30;;
74059;SDS011;62414;53.436;8.828;2024-02-16T12:47:42;10.48;;;4.30;;
74059;SDS011;62414;53.436;8.828;2024-02-16T12:50:08;9.77;;;4.60;;
74059;SDS011;62414;53.436;8.828;2024-02-16T12:52:34;8.43;;;4.25;;
74059;SDS011;62414;53.436;8.828;2024-02-16T12:55:00;10.30;;;4.80;;
74059;SDS011;62414;53.436;8.828;2024-02-16T12:57:26;9.65;;;4.65;;
74059;SDS011;62414;53.436;8.828;2024-02-16T12:59:51;8.50;;;4.47;;
74059;SDS011;62414;53.436;8.828;2024-02-16T13:02:17;9.07;;;4.60;;
74059;SDS011;62414;53.436;8.828;2024-02-16T13:04:42;10.03;;;4.57;;
74059;SDS011;62414;53.436;8.828;2024-02-16T13:07:08;9.68;;;4.47;;
74059;SDS011;62414;53.436;8.828;2024-02-16T13:09:33;10.50;;;4.93;;
74059;SDS011;62414;53.436;8.828;2024-02-16T13:12:00;9.83;;;4.63;;
74059;SDS011;62414;53.436;8.828;2024-02-16T13:14:26;14.23;;;5.20;;
74059;SDS011;62414;53.436;8.828;2024-02-16T13:16:51;11.40;;;4.53;;
74059;SDS011;62414;53.436;8.828;2024-02-16T13:19:17;9.25;;;4.53;;
74059;SDS011;62414;53.436;8.828;2024-02-16T13:21:43;10.77;;;4.97;;
74059;SDS011;62414;53.436;8.828;2024-02-16T13:24:08;10.30;;;4.85;;
74059;SDS011;62414;53.436;8.828;2024-02-16T13:26:34;12.47;;;5.27;;
74059;SDS011;62414;53.436;8.828;2024-02-16T13:29:01;10.70;;;5.10;;
74059;SDS011;62414;53.436;8.828;2024-02-16T13:31:26;9.70;;;4.70;;
74059;SDS011;62414;53.436;8.828;2024-02-16T13:33:53;11.60;;;5.20;;
74059;SDS011;62414;53.436;8.828;2024-02-16T13:36:19;11.48;;;5.63;;
74059;SDS011;62414;53.436;8.828;2024-02-16T13:38:44;10.97;;;5.17;;
74059;SDS011;62414;53.436;8.828;2024-02-16T13:41:10;12.10;;;5.33;;
74059;SDS011;62414;53.436;8.828;2024-02-16T13:43:35;10.23;;;5.80;;
74059;SDS011;62414;53.436;8.828;2024-02-16T13:46:02;11.40;;;5.27;;
74059;SDS011;62414;53.436;8.828;2024-02-16T13:48:28;10.60;;;5.57;;
74059;SDS011;62414;53.436;8.828;2024-02-16T13:50:53;11.97;;;5.60;;
74059;SDS011;62414;53.436;8.828;2024-02-16T13:53:19;13.00;;;6.55;;
74059;SDS011;62414;53.436;8.828;2024-02-16T13:55:45;12.50;;;6.22;;
74059;SDS011;62414;53.436;8.828;2024-02-16T13:58:10;13.93;;;6.90;;
74059;SDS011;62414;53.436;8.828;2024-02-16T14:00:36;12.73;;;7.67;;
74059;SDS011;62414;53.436;8.828;2024-02-16T14:03:03;12.93;;;7.63;;
74059;SDS011;62414;53.436;8.828;2024-02-16T14:05:29;15.73;;;8.40;;
74059;SDS011;62414;53.436;8.828;2024-02-16T14:07:55;15.38;;;8.57;;
74059;SDS011;62414;53.436;8.828;2024-02-16T14:10:20;16.20;;;9.00;;
74059;SDS011;62414;53.436;8.828;2024-02-16T14:12:47;15.23;;;9.30;;
74059;SDS011;62414;53.436;8.828;2024-02-16T14:15:12;16.33;;;9.70;;
74059;SDS011;62414;53.436;8.828;2024-02-16T14:17:38;18.20;;;10.15;;
74059;SDS011;62414;53.436;8.828;2024-02-16T14:20:06;19.80;;;10.33;;
74059;SDS011;62414;53.436;8.828;2024-02-16T14:22:32;20.30;;;10.68;;
74059;SDS011;62414;53.436;8.828;2024-02-16T14:24:57;19.30;;;11.00;;
74059;SDS011;62414;53.436;8.828;2024-02-16T14:27:23;21.27;;;11.40;;
74059;SDS011;62414;53.436;8.828;2024-02-16T14:29:48;21.15;;;11.20;;
74059;SDS011;62414;53.436;8.828;2024-02-16T14:32:14;19.57;;;10.93;;
74059;SDS011;62414;53.436;8.828;2024-02-16T14:34:39;21.97;;;11.77;;